createdAt,value
2018-02-08T00:01:20.691Z,1.60
2018-02-08T00:03:49.628Z,1.70
2018-02-08T00:06:17.811Z,1.70
2018-02-08T00:08:45.960Z,1.70
2018-02-08T00:11:14.138Z,1.70
2018-02-08T00:13:43.076Z,1.70
2018-02-08T00:16:11.818Z,1.70
2018-02-08T00:18:39.989Z,1.70
2018-02-08T00:21:08.209Z,1.60
2018-02-08T00:23:36.382Z,1.60
2018-02-08T00:26:04.560Z,1.60
2018-02-08T00:28:32.773Z,1.60
2018-02-08T00:31:00.955Z,1.60
2018-02-08T00:33:29.140Z,1.50
2018-02-08T00:35:57.306Z,1.60
2018-02-08T00:38:25.471Z,1.50
2018-02-08T00:40:53.956Z,1.60
2018-02-08T00:43:22.118Z,1.60
2018-02-08T00:45:50.272Z,1.60
2018-02-08T00:48:25.201Z,1.40
2018-02-08T00:50:53.417Z,1.40
2018-02-08T00:53:21.570Z,1.40
2018-02-08T00:55:50.497Z,1.30
2018-02-08T00:58:18.671Z,1.30
2018-02-08T01:00:46.856Z,1.40
2018-02-08T01:03:15.024Z,1.40
2018-02-08T01:05:43.170Z,1.30
2018-02-08T01:08:14.824Z,1.30
2018-02-08T01:10:43.115Z,1.30
2018-02-08T01:13:11.314Z,1.40
2018-02-08T01:15:39.530Z,1.30
2018-02-08T01:18:07.960Z,1.40
2018-02-08T01:20:36.130Z,1.40
2018-02-08T01:23:05.049Z,1.20
2018-02-08T01:25:33.225Z,1.20
2018-02-08T01:28:01.457Z,1.20
2018-02-08T01:30:29.604Z,1.20
2018-02-08T01:32:57.770Z,1.20
2018-02-08T01:35:25.932Z,1.20
2018-02-08T01:37:58.877Z,1.20
2018-02-08T01:40:27.027Z,1.20
2018-02-08T01:42:55.202Z,1.20
2018-02-08T01:45:23.369Z,1.20
2018-02-08T01:47:51.559Z,1.20
2018-02-08T01:50:19.724Z,1.20
2018-02-08T01:52:47.885Z,1.20
2018-02-08T01:55:16.063Z,1.20
2018-02-08T01:57:45.062Z,1.10
2018-02-08T02:00:13.236Z,1.10
2018-02-08T02:02:41.529Z,1.10
2018-02-08T02:05:09.682Z,1.10
2018-02-08T02:07:45.608Z,1.20
2018-02-08T02:10:13.766Z,1.20
2018-02-08T02:12:41.943Z,1.10
2018-02-08T02:15:10.117Z,1.20
2018-02-08T02:17:38.298Z,1.20
2018-02-08T02:20:06.466Z,1.20
2018-02-08T02:22:34.647Z,1.20
2018-02-08T02:25:02.821Z,1.20
2018-02-08T02:27:30.976Z,1.30
2018-02-08T02:29:59.252Z,1.30
2018-02-08T02:32:27.425Z,1.40
2018-02-08T02:34:55.585Z,1.30
2018-02-08T02:37:23.889Z,1.30
2018-02-08T02:39:52.067Z,1.20
2018-02-08T02:42:20.224Z,1.30
2018-02-08T02:44:48.376Z,1.20
2018-02-08T02:47:16.564Z,1.30
2018-02-08T02:49:44.966Z,1.30
2018-02-08T02:52:13.153Z,1.40
2018-02-08T02:54:41.316Z,1.30
2018-02-08T02:57:10.468Z,1.30
2018-02-08T02:59:38.645Z,1.20
2018-02-08T03:02:06.832Z,1.30
2018-02-08T03:04:34.996Z,1.30
2018-02-08T03:07:15.773Z,1.30
2018-02-08T03:09:45.991Z,1.30
2018-02-08T03:12:14.164Z,1.30
2018-02-08T03:14:42.322Z,1.20
2018-02-08T03:17:13.006Z,1.30
2018-02-08T03:19:41.157Z,1.30
2018-02-08T03:22:09.332Z,1.30
2018-02-08T03:24:37.564Z,1.20
2018-02-08T03:27:05.764Z,1.20
2018-02-08T03:29:33.944Z,1.20
2018-02-08T03:32:02.128Z,1.30
2018-02-08T03:34:30.272Z,1.30
2018-02-08T03:36:59.484Z,1.30
2018-02-08T03:39:27.633Z,1.20
2018-02-08T03:41:56.564Z,1.00
2018-02-08T03:44:25.498Z,0.90
2018-02-08T03:46:59.401Z,0.80
2018-02-08T03:49:32.113Z,0.90
2018-02-08T03:52:00.284Z,0.90
2018-02-08T03:54:28.672Z,0.90
2018-02-08T03:56:56.950Z,0.90
2018-02-08T03:59:25.108Z,1.00
2018-02-08T04:01:53.285Z,1.00
2018-02-08T04:04:21.466Z,1.00
2018-02-08T04:06:57.944Z,1.00
2018-02-08T04:09:33.781Z,1.00
2018-02-08T04:12:02.721Z,1.00
2018-02-08T04:14:36.388Z,0.90
2018-02-08T04:17:04.676Z,0.90
2018-02-08T04:19:32.841Z,0.90
2018-02-08T04:22:01.628Z,0.80
2018-02-08T04:24:29.796Z,0.80
2018-02-08T04:26:58.166Z,0.80
2018-02-08T04:29:27.100Z,0.80
2018-02-08T04:31:55.266Z,0.80
2018-02-08T04:34:24.300Z,0.70
2018-02-08T04:36:52.547Z,0.70
2018-02-08T04:39:32.570Z,0.70
2018-02-08T04:42:12.427Z,0.70
2018-02-08T04:45:02.000Z,0.80
2018-02-08T04:47:52.924Z,0.80
2018-02-08T04:50:22.075Z,0.70
2018-02-08T04:52:52.836Z,0.70
2018-02-08T04:55:21.328Z,0.70
2018-02-08T04:57:49.823Z,0.80
2018-02-08T05:00:18.026Z,0.80
2018-02-08T05:02:46.244Z,0.80
2018-02-08T05:05:14.934Z,0.70
2018-02-08T05:07:43.121Z,0.70
2018-02-08T05:10:11.527Z,0.70
2018-02-08T05:12:40.388Z,0.60
2018-02-08T05:15:09.142Z,0.60
2018-02-08T05:17:37.541Z,0.50
2018-02-08T05:20:05.701Z,0.60
2018-02-08T05:22:33.887Z,0.70
2018-02-08T05:25:03.367Z,0.70
2018-02-08T05:27:32.394Z,0.70
2018-02-08T05:30:00.591Z,0.80
2018-02-08T05:32:28.767Z,0.80
2018-02-08T05:34:56.924Z,0.90
2018-02-08T05:37:25.148Z,0.80
2018-02-08T05:39:53.659Z,0.80
2018-02-08T05:42:22.583Z,0.60
2018-02-08T05:44:53.663Z,0.60
2018-02-08T05:47:24.278Z,0.60
2018-02-08T05:49:53.407Z,0.60
2018-02-08T05:52:22.376Z,0.70
2018-02-08T05:54:53.000Z,0.60
2018-02-08T05:57:21.766Z,0.60
2018-02-08T05:59:49.933Z,0.60
2018-02-08T06:02:19.395Z,0.50
2018-02-08T06:04:47.558Z,0.50
2018-02-08T06:07:19.324Z,0.60
2018-02-08T06:09:47.533Z,0.50
2018-02-08T06:12:15.691Z,0.50
2018-02-08T06:14:43.900Z,0.40
2018-02-08T06:17:13.724Z,0.30
2018-02-08T06:19:42.109Z,0.40
2018-02-08T06:22:10.278Z,0.50
2018-02-08T06:24:38.437Z,0.40
2018-02-08T06:27:09.389Z,0.30
2018-02-08T06:29:37.538Z,0.30
2018-02-08T06:32:05.771Z,0.20
2018-02-08T06:34:34.274Z,0.30
2018-02-08T06:37:02.559Z,0.20
2018-02-08T06:39:30.970Z,0.20
2018-02-08T06:41:59.164Z,0.10
2018-02-08T06:44:27.342Z,0.10
2018-02-08T06:46:55.665Z,0.10
2018-02-08T06:49:24.043Z,0.10
2018-02-08T06:51:53.020Z,0.00
2018-02-08T06:54:21.203Z,0.00
2018-02-08T06:56:49.386Z,0.00
2018-02-08T06:59:17.793Z,0.00
2018-02-08T07:01:45.956Z,0.10
2018-02-08T07:04:14.109Z,0.10
2018-02-08T07:06:42.370Z,0.20
2018-02-08T07:09:10.520Z,0.20
2018-02-08T07:11:39.380Z,0.20
2018-02-08T07:14:07.544Z,0.10
2018-02-08T07:16:37.868Z,0.20
2018-02-08T07:19:06.036Z,0.20
2018-02-08T07:21:35.792Z,0.30
2018-02-08T07:24:04.014Z,0.20
2018-02-08T07:26:34.033Z,0.20
2018-02-08T07:29:02.256Z,0.20
2018-02-08T07:31:31.218Z,0.20
2018-02-08T07:33:59.400Z,0.30
2018-02-08T07:36:28.471Z,0.30
2018-02-08T07:38:57.662Z,0.40
2018-02-08T07:41:26.661Z,0.30
2018-02-08T07:43:55.945Z,0.30
2018-02-08T07:46:24.649Z,0.30
2018-02-08T07:48:54.112Z,0.30
2018-02-08T07:51:22.351Z,0.30
2018-02-08T07:53:51.352Z,0.30
2018-02-08T07:56:25.057Z,0.20
2018-02-08T07:58:53.294Z,0.10
2018-02-08T08:01:21.488Z,0.10
2018-02-08T08:03:50.614Z,0.10
2018-02-08T08:06:19.018Z,0.00
2018-02-08T08:08:47.888Z,0.00
2018-02-08T08:11:16.076Z,0.00
2018-02-08T08:13:44.295Z,0.00
2018-02-08T08:16:12.485Z,-0.10
2018-02-08T08:18:40.645Z,-0.10
2018-02-08T08:21:09.075Z,-0.10
2018-02-08T08:23:37.827Z,0.00
2018-02-08T08:26:07.004Z,0.10
2018-02-08T08:28:35.972Z,0.10
2018-02-08T08:31:04.907Z,0.30
2018-02-08T08:33:34.072Z,0.20
2018-02-08T08:36:02.225Z,0.20
2018-02-08T08:38:30.700Z,0.30
2018-02-08T08:40:59.625Z,0.30
2018-02-08T08:43:27.806Z,0.40
2018-02-08T08:45:55.966Z,0.60
2018-02-08T08:48:24.906Z,0.70
2018-02-08T08:50:59.718Z,0.70
2018-02-08T08:53:33.431Z,0.90
2018-02-08T08:56:02.515Z,1.20
2018-02-08T08:58:31.976Z,1.40
2018-02-08T09:01:00.166Z,1.50
2018-02-08T09:03:30.085Z,1.80
2018-02-08T09:05:58.287Z,1.80
2018-02-08T09:08:26.457Z,1.90
2018-02-08T09:10:54.630Z,2.00
2018-02-08T09:13:24.116Z,2.00
2018-02-08T09:15:52.988Z,2.10
2018-02-08T09:18:21.425Z,2.20
2018-02-08T09:20:50.154Z,2.00
2018-02-08T09:23:18.370Z,1.80
2018-02-08T09:25:46.536Z,1.50
2018-02-08T09:28:22.360Z,1.70
2018-02-08T09:30:50.551Z,1.80
2018-02-08T09:33:20.866Z,1.90
2018-02-08T09:35:49.875Z,2.00
2018-02-08T09:38:24.585Z,2.20
2018-02-08T09:40:53.500Z,2.30
2018-02-08T09:43:24.389Z,2.30
2018-02-08T09:45:53.259Z,2.40
2018-02-08T09:48:21.711Z,2.30
2018-02-08T09:50:51.485Z,2.40
2018-02-08T09:53:20.975Z,2.70
2018-02-08T09:55:49.140Z,2.70
2018-02-08T09:58:20.605Z,2.80
2018-02-08T10:00:48.869Z,2.90
2018-02-08T10:03:17.097Z,3.00
2018-02-08T10:05:45.264Z,3.10
2018-02-08T10:08:14.601Z,3.20
2018-02-08T10:10:43.717Z,3.20
2018-02-08T10:13:12.097Z,3.10
2018-02-08T10:15:40.573Z,3.20
2018-02-08T10:18:08.792Z,3.00
2018-02-08T10:20:37.855Z,2.90
2018-02-08T10:23:06.360Z,2.70
2018-02-08T10:25:34.522Z,2.70
2018-02-08T10:28:02.747Z,2.80
2018-02-08T10:30:31.868Z,2.80
2018-02-08T10:33:00.066Z,2.90
2018-02-08T10:35:29.205Z,3.10
2018-02-08T10:37:57.485Z,3.40
2018-02-08T10:40:25.653Z,3.60
2018-02-08T10:42:53.812Z,3.70
2018-02-08T10:45:22.026Z,3.50
2018-02-08T10:47:57.691Z,3.60
2018-02-08T10:50:25.859Z,3.80
2018-02-08T10:52:57.190Z,4.00
2018-02-08T10:55:25.332Z,4.10
2018-02-08T10:57:53.522Z,4.20
2018-02-08T11:00:21.711Z,4.30
2018-02-08T11:02:49.880Z,4.30
2018-02-08T11:05:19.481Z,4.40
2018-02-08T11:07:48.690Z,4.50
2018-02-08T11:10:16.908Z,4.50
2018-02-08T11:12:45.065Z,4.50
2018-02-08T11:15:13.989Z,4.50
2018-02-08T11:17:43.010Z,4.50
2018-02-08T11:20:11.182Z,4.50
2018-02-08T11:22:40.182Z,4.50
2018-02-08T11:25:08.355Z,4.50
2018-02-08T11:27:37.096Z,4.30
2018-02-08T11:30:05.266Z,4.30
2018-02-08T11:32:33.525Z,4.20
2018-02-08T11:35:01.688Z,4.10
2018-02-08T11:37:29.905Z,4.10
2018-02-08T11:39:58.153Z,4.20
2018-02-08T11:42:26.366Z,4.20
2018-02-08T11:44:54.540Z,4.00
2018-02-08T11:47:23.735Z,4.00
2018-02-08T11:49:51.912Z,4.10
2018-02-08T11:52:20.073Z,4.20
2018-02-08T11:54:48.232Z,3.80
2018-02-08T11:57:26.343Z,3.80
2018-02-08T11:59:58.452Z,3.90
2018-02-08T12:02:26.730Z,4.20
2018-02-08T12:04:54.915Z,4.30
2018-02-08T12:07:33.206Z,4.40
2018-02-08T12:10:02.427Z,4.60
2018-02-08T12:12:30.610Z,4.60
2018-02-08T12:14:58.794Z,4.60
2018-02-08T12:17:27.068Z,4.50
2018-02-08T12:19:55.233Z,4.40
2018-02-08T12:22:23.471Z,4.40
2018-02-08T12:24:52.394Z,4.00
2018-02-08T12:27:21.569Z,4.00
2018-02-08T12:29:49.737Z,4.00
2018-02-08T12:32:19.115Z,3.90
2018-02-08T12:34:47.295Z,3.90
2018-02-08T12:37:15.514Z,4.00
2018-02-08T12:39:43.678Z,3.90
2018-02-08T12:42:11.862Z,3.80
2018-02-08T12:44:40.037Z,3.80
2018-02-08T12:47:10.252Z,3.70
2018-02-08T12:49:38.422Z,3.60
2018-02-08T12:52:06.586Z,3.70
2018-02-08T12:54:34.772Z,3.70
2018-02-08T12:57:10.328Z,3.60
2018-02-08T12:59:38.638Z,3.50
2018-02-08T13:02:06.815Z,3.40
2018-02-08T13:04:35.012Z,3.40
2018-02-08T13:07:03.207Z,3.40
2018-02-08T13:09:31.515Z,3.30
2018-02-08T13:11:59.693Z,3.30
2018-02-08T13:14:27.879Z,3.20
2018-02-08T13:16:56.212Z,3.20
2018-02-08T13:19:24.376Z,3.20
2018-02-08T13:21:53.472Z,3.10
2018-02-08T13:24:21.641Z,3.00
2018-02-08T13:26:51.546Z,3.00
2018-02-08T13:29:20.589Z,3.00
2018-02-08T13:31:49.637Z,3.00
2018-02-08T13:34:17.805Z,3.00
2018-02-08T13:36:47.069Z,3.00
2018-02-08T13:39:27.102Z,2.90
2018-02-08T13:41:56.034Z,3.00
2018-02-08T13:44:24.229Z,3.00
2018-02-08T13:46:53.343Z,2.80
2018-02-08T13:49:25.325Z,3.10
2018-02-08T13:51:55.960Z,3.10
2018-02-08T13:54:29.827Z,3.10
2018-02-08T13:57:10.581Z,3.20
2018-02-08T13:59:41.081Z,3.20
2018-02-08T14:02:10.176Z,3.40
2018-02-08T14:04:38.325Z,3.40
2018-02-08T14:07:06.488Z,3.60
2018-02-08T14:09:35.893Z,3.80
2018-02-08T14:12:06.601Z,4.00
2018-02-08T14:14:34.772Z,4.20
2018-02-08T14:17:04.141Z,4.50
2018-02-08T14:19:32.376Z,4.70
2018-02-08T14:22:00.587Z,4.80
2018-02-08T14:24:29.030Z,5.00
2018-02-08T14:26:58.242Z,5.10
2018-02-08T14:29:26.750Z,5.30
2018-02-08T14:31:55.179Z,5.60
2018-02-08T14:34:24.401Z,5.70
2018-02-08T14:37:01.769Z,5.70
2018-02-08T14:39:31.414Z,5.80
2018-02-08T14:42:05.883Z,5.80
2018-02-08T14:44:42.880Z,6.10
2018-02-08T14:47:13.814Z,6.40
2018-02-08T14:49:42.829Z,7.20
2018-02-08T14:52:12.942Z,7.10
2018-02-08T14:54:44.815Z,7.60
2018-02-08T14:57:14.301Z,8.00
2018-02-08T14:59:43.265Z,8.60
2018-02-08T15:02:12.440Z,8.70
2018-02-08T15:04:42.604Z,8.70
2018-02-08T15:07:14.982Z,8.90
2018-02-08T15:09:51.415Z,8.90
2018-02-08T15:12:21.427Z,8.70
2018-02-08T15:14:50.795Z,8.60
2018-02-08T15:17:22.890Z,8.40
2018-02-08T15:19:53.997Z,8.30
2018-02-08T15:22:27.314Z,7.80
2018-02-08T15:24:58.140Z,7.00
2018-02-08T15:27:34.136Z,6.50
2018-02-08T15:30:07.188Z,6.00
2018-02-08T15:32:38.096Z,5.70
2018-02-08T15:35:12.716Z,5.40
2018-02-08T15:37:44.875Z,5.00
2018-02-08T15:42:51.722Z,4.80
2018-02-08T15:45:23.369Z,4.10
2018-02-08T15:47:54.062Z,4.10
2018-02-08T15:50:22.733Z,3.90
2018-02-08T15:52:51.811Z,3.80
2018-02-08T15:55:20.676Z,3.70
2018-02-08T15:57:49.293Z,3.60
2018-02-08T16:00:19.356Z,3.40
2018-02-08T16:02:49.296Z,3.30
2018-02-08T16:05:17.494Z,3.20
2018-02-08T16:07:51.569Z,3.10
2018-02-08T16:10:28.628Z,2.90
2018-02-08T16:21:53.334Z,2.20
2018-02-08T16:24:22.724Z,2.10
2018-02-08T16:26:50.918Z,2.00
2018-02-08T16:29:19.135Z,1.90
2018-02-08T16:31:47.866Z,1.80
2018-02-08T16:34:17.611Z,1.70
2018-02-08T16:36:47.282Z,1.70
2018-02-08T16:41:58.376Z,1.60
2018-02-08T16:44:26.643Z,1.50
2018-02-08T16:46:57.525Z,1.50
2018-02-08T16:49:25.694Z,1.40
2018-02-08T16:51:54.702Z,1.40
2018-02-08T16:54:23.787Z,1.50
2018-02-08T16:56:57.711Z,1.50
2018-02-08T16:59:28.169Z,1.50
2018-02-08T17:01:57.146Z,1.50
2018-02-08T17:04:27.250Z,1.50
2018-02-08T17:06:56.722Z,1.50
2018-02-08T17:09:26.585Z,1.50
2018-02-08T17:11:56.666Z,1.50
2018-02-08T17:14:24.835Z,1.50
2018-02-08T17:16:53.322Z,1.40
2018-02-08T17:19:21.488Z,1.40
2018-02-08T17:21:49.763Z,1.40
2018-02-08T17:24:19.216Z,1.40
2018-02-08T17:26:47.389Z,1.40
2018-02-08T17:29:15.543Z,1.30
2018-02-08T17:31:45.603Z,1.20
2018-02-08T17:34:14.869Z,1.10
2018-02-08T17:36:43.896Z,1.20
2018-02-08T17:39:12.821Z,1.20
2018-02-08T17:41:41.436Z,1.20
2018-02-08T17:44:14.545Z,1.10
2018-02-08T17:49:18.672Z,1.10
2018-02-08T17:51:47.604Z,1.10
2018-02-08T17:54:15.754Z,1.10
2018-02-08T17:56:47.386Z,1.10
2018-02-08T17:59:15.563Z,1.10
2018-02-08T18:01:43.744Z,1.10
2018-02-08T18:04:12.120Z,1.00
2018-02-08T18:06:44.008Z,1.00
2018-02-08T18:09:14.080Z,1.00
2018-02-08T18:11:42.237Z,1.00
2018-02-08T18:14:10.430Z,1.00
2018-02-08T18:16:38.594Z,1.10
2018-02-08T18:19:06.799Z,1.20
2018-02-08T18:21:34.960Z,1.20
2018-02-08T18:24:03.906Z,1.10
2018-02-08T18:26:35.738Z,1.10
2018-02-08T18:29:03.913Z,1.10
2018-02-08T18:31:35.159Z,1.10
2018-02-08T18:34:03.319Z,1.10
2018-02-08T18:36:33.553Z,1.10
2018-02-08T18:39:01.734Z,1.20
2018-02-08T18:41:29.889Z,1.10
2018-02-08T18:43:58.055Z,1.10
2018-02-08T18:46:26.247Z,1.20
2018-02-08T18:48:54.424Z,1.20
2018-02-08T18:51:22.645Z,1.20
2018-02-08T18:53:50.821Z,1.30
2018-02-08T18:56:18.995Z,1.30
2018-02-08T18:58:47.940Z,1.30
2018-02-08T19:01:16.394Z,1.30
2018-02-08T19:03:45.337Z,1.40
2018-02-08T19:06:13.497Z,1.40
2018-02-08T19:08:41.675Z,1.40
2018-02-08T19:11:09.842Z,1.40
2018-02-08T19:13:38.024Z,1.40
2018-02-08T19:16:07.237Z,1.40
2018-02-08T19:18:35.432Z,1.40
2018-02-08T19:21:03.617Z,1.40
2018-02-08T19:23:32.365Z,1.30
2018-02-08T19:26:00.543Z,1.40
2018-02-08T19:28:28.868Z,1.40
2018-02-08T19:30:57.788Z,1.30
2018-02-08T19:33:25.961Z,1.30
2018-02-08T19:35:54.125Z,1.20
2018-02-08T19:38:23.046Z,1.10
2018-02-08T19:40:51.199Z,0.90
2018-02-08T19:43:19.365Z,0.80
2018-02-08T19:45:47.510Z,0.70
2018-02-08T19:48:16.634Z,0.60
2018-02-08T19:50:44.825Z,0.50
2018-02-08T19:53:13.043Z,0.50
2018-02-08T19:55:41.201Z,0.50
2018-02-08T19:58:13.073Z,0.40
2018-02-08T20:00:41.245Z,0.20
2018-02-08T20:03:09.418Z,0.10
2018-02-08T20:05:37.574Z,0.00
2018-02-08T20:08:11.763Z,-0.10
2018-02-08T20:10:43.617Z,-0.10
2018-02-08T20:13:11.802Z,-0.20
2018-02-08T20:15:40.785Z,-0.20
2018-02-08T20:18:10.512Z,-0.30
2018-02-08T20:20:38.772Z,-0.30
2018-02-08T20:23:06.938Z,-0.40
2018-02-08T20:25:43.592Z,-0.30
2018-02-08T20:31:15.338Z,-0.40
2018-02-08T20:33:51.231Z,-0.60
2018-02-08T20:36:21.210Z,-0.60
2018-02-08T20:41:32.783Z,-0.60
2018-02-08T20:44:05.289Z,-0.60
2018-02-08T20:46:33.801Z,-0.60
2018-02-08T20:49:03.652Z,-0.60
2018-02-08T20:51:36.611Z,-0.80
2018-02-08T20:54:06.302Z,-0.90
2018-02-08T20:56:38.521Z,-0.90
2018-02-08T20:59:09.541Z,-0.90
2018-02-08T21:01:38.982Z,-0.80
2018-02-08T21:04:07.487Z,-0.80
2018-02-08T21:06:37.169Z,-0.90
2018-02-08T21:09:06.154Z,-0.90
2018-02-08T21:11:35.231Z,-1.10
2018-02-08T21:14:05.176Z,-1.00
2018-02-08T21:16:37.284Z,-0.90
2018-02-08T21:19:10.972Z,-0.90
2018-02-08T21:21:40.098Z,-0.90
2018-02-08T21:24:09.823Z,-0.90
2018-02-08T21:26:38.042Z,-0.90
2018-02-08T21:29:06.228Z,-0.80
2018-02-08T21:31:34.392Z,-0.70
2018-02-08T21:34:03.393Z,-0.60
2018-02-08T21:36:31.730Z,-0.50
2018-02-08T21:38:59.970Z,-0.40
2018-02-08T21:41:28.146Z,-0.40
2018-02-08T21:43:57.117Z,-0.10
2018-02-08T21:46:27.329Z,-0.20
2018-02-08T21:48:56.570Z,0.00
2018-02-08T21:51:25.513Z,0.00
2018-02-08T21:53:53.701Z,0.00
2018-02-08T21:56:22.724Z,0.00
2018-02-08T21:58:51.666Z,0.20
2018-02-08T22:01:19.874Z,0.10
2018-02-08T22:03:48.592Z,0.20
2018-02-08T22:06:17.611Z,0.20
2018-02-08T22:08:45.823Z,0.30
2018-02-08T22:11:13.994Z,0.30
2018-02-08T22:13:42.202Z,0.30
2018-02-08T22:16:10.358Z,0.30
2018-02-08T22:18:40.669Z,0.40
2018-02-08T22:21:09.775Z,0.40
2018-02-08T22:23:37.952Z,0.40
2018-02-08T22:26:06.170Z,0.40
2018-02-08T22:28:34.392Z,0.40
2018-02-08T22:31:02.550Z,0.40
2018-02-08T22:33:30.719Z,0.50
2018-02-08T22:35:58.897Z,0.60
2018-02-08T22:38:27.069Z,0.60
2018-02-08T22:40:58.631Z,0.60
2018-02-08T22:43:30.714Z,0.60
2018-02-08T22:45:58.925Z,0.60
2018-02-08T22:48:28.423Z,0.60
2018-02-08T22:50:56.595Z,0.60
2018-02-08T22:53:25.437Z,0.50
2018-02-08T22:55:53.883Z,0.50
2018-02-08T22:58:23.709Z,0.60
2018-02-08T23:00:53.252Z,0.70
2018-02-08T23:03:21.448Z,0.70
2018-02-08T23:05:50.802Z,0.80
2018-02-08T23:08:41.046Z,0.80
2018-02-08T23:11:22.522Z,1.00
2018-02-08T23:13:51.295Z,0.90
2018-02-08T23:16:19.951Z,1.00
2018-02-08T23:18:48.993Z,1.00
2018-02-08T23:21:17.157Z,1.00
2018-02-08T23:23:46.050Z,1.00
2018-02-08T23:26:14.344Z,1.10
2018-02-08T23:28:42.480Z,1.10
2018-02-08T23:31:11.550Z,1.10
2018-02-08T23:33:39.704Z,1.00
2018-02-08T23:36:09.262Z,1.00
2018-02-08T23:38:37.383Z,1.10
2018-02-08T23:41:05.956Z,1.10
2018-02-08T23:43:35.735Z,1.10
2018-02-08T23:46:03.889Z,1.10
2018-02-08T23:48:32.035Z,1.20
2018-02-08T23:51:00.182Z,1.10
2018-02-08T23:53:28.295Z,1.20
2018-02-08T23:55:56.427Z,1.20
2018-02-08T23:58:24.610Z,1.20
